Terminal Aerodrome Forecast
Issued by NWS

Home | Current Version | Previous Version | Text Only | Print | Product List | Glossary On
Versions: 1 2 3 4 5 6 7 8 9 10 11 12 13 14
000
FTUS46 KLOX 230500
TAFPMD
TAF
KPMD 230535Z 2306/2406 20006KT P6SM SKC
     FM231800 25010KT P6SM SKC
     FM232100 25016G22KT P6SM SKC
     FM240000 25018KT P6SM SKC
     FM240500 25012KT P6SM SKC=

USA.gov is the U.S. government's official web portal to all federal, state and local government web resources and services.